Forest, OH (45843)

9:37 PM EDT on May 24, 2017 (GMT -0400)
KOHARLIN2 | | Change Station

Elev 850 ft 40.87 °N, 83.66 °W | Updated 7 seconds ago

Overcast
Overcast
62.1 °F
Feels Like 62.1 °F
N
0.0
Wind Variable Wind from ENE
Gusts 5.0 mph

Today
High -- | Low -- °F
--% Chance of Precip.
Yesterday
High -- | Low -- °F
Precip. -- in
Pressure 29.41 in
Visibility 10.0 miles
Clouds Scattered Clouds 1300 ft
Mostly Cloudy 3700 ft
Overcast 6000 ft
Dew Point 58 °F
Humidity 87%
Rainfall 0.05 in
Snow Depth Not available.
6:09 AM 8:53 PM
Waning Crescent, 1% visible
SPECI KFDY 250113Z AUTO 06012KT 10SM SCT013 BKN037 OVC060 18/14 A2941 RMK AO2 T01780144 TSNO
Pressure 29.41 in
Visibility 10.0 miles
Clouds Scattered Clouds 1300 ft
Mostly Cloudy 3700 ft
Overcast 6000 ft
Dew Point 58 °F
Humidity 87%
Rainfall 0.05 in
Snow Depth Not available.
6:09 AM 8:53 PM
Waning Crescent, 1% visible
SPECI KFDY 250113Z AUTO 06012KT 10SM SCT013 BKN037 OVC060 18/14 A2941 RMK AO2 T01780144 TSNO

Get Severe Weather Alerts

Thanks for signing up!

Be on the lookout for a verification email in your inbox.

You'll start receiving the daily forecast at 6 AM.

×

10-Day Weather Forecast

Almanac

Astronomy

May. 24, 2017 Rise Set
Actual Time
Civil Twilight
Nautical Twilight
Astronomical Twilight
Moon
Length of Visible Light
Length of Day
Tomorrow will be .
, % of the Moon is Illuminated

Today's Extremes

State Highs State Lows

Community

WunderPhotos

Category 6

Welcome to Category 6. This is the collective home for Weather Underground's featured writeups by Dr. Jeff Masters (right), Bob Henson (left), Chris Burt, and other regular contributors.

Nearby

Air Quality

  Air Quality AQ Index Pollutant
Not available.

Snow Depth

Station Depth Elevation

Earthquake Activity

City Distance Mag. Time & Date
Minimum magnitude displayed is 2.5.

Coastal Water Temperatures

Place Temperature

Stations

Nearby Weather Stations

Station Location Temp. Windchill Dew Point Humidity Wind Precip. Elev Updated Type
                   

Watches & Warnings

There are currently no watches in effect.